Terminal Aerodrome Forecast
Issued by NWS

Home | Current Version | Previous Version | Text Only | Print | Product List | Glossary On
Versions: 1 2 3 4 5 6 7 8 9 10 11 12 13 14 15 16 17 18 19 20 21
197
FTUS44 KLZK 221705 AAB
TAFBPK
TAF AMD
KBPK 221705Z 2217/2312 VRB03KT P6SM -RA BKN100
     FM221900 VRB04KT P6SM BKN120
     FM230300 32008KT P6SM VCSH SCT040 BKN100=

USA.gov is the U.S. government's official web portal to all federal, state and local government web resources and services.